createdAt,value
2019-03-20T00:00:38.805Z,98679.54
2019-03-20T00:03:48.244Z,98684.08
2019-03-20T00:06:59.302Z,98685.38
2019-03-20T00:10:08.720Z,98692.18
2019-03-20T00:13:16.443Z,98692.45
2019-03-20T00:16:25.114Z,98693.07
2019-03-20T00:19:33.746Z,98694.63
2019-03-20T00:22:43.096Z,98697.16
2019-03-20T00:25:55.724Z,98688.03
2019-03-20T00:29:05.000Z,98690.91
2019-03-20T00:32:13.092Z,98690.75
2019-03-20T00:35:21.382Z,98690.07
2019-03-20T00:38:29.322Z,98686.33
2019-03-20T00:41:37.372Z,98687.36
2019-03-20T00:44:45.178Z,98687.33
2019-03-20T00:47:53.861Z,98685.48
2019-03-20T00:51:04.180Z,98686.15
2019-03-20T00:54:12.100Z,98689.78
2019-03-20T00:57:20.940Z,98683.81
2019-03-20T01:00:30.041Z,98685.91
2019-03-20T01:03:38.142Z,98686.78
2019-03-20T01:06:47.821Z,98685.45
2019-03-20T01:09:56.266Z,98690.71
2019-03-20T01:13:04.850Z,98690.23
2019-03-20T01:16:13.296Z,98686.30
2019-03-20T01:19:24.840Z,98695.25
2019-03-20T01:22:33.709Z,98696.17
2019-03-20T01:25:42.288Z,98692.73
2019-03-20T01:28:50.431Z,98682.87
2019-03-20T01:31:58.886Z,98688.80
2019-03-20T01:35:07.001Z,98685.80
2019-03-20T01:38:15.214Z,98688.45
2019-03-20T01:41:23.669Z,98689.20
2019-03-20T01:44:31.936Z,98686.97
2019-03-20T01:47:40.576Z,98681.52
2019-03-20T01:50:49.025Z,98685.39
2019-03-20T01:53:58.079Z,98685.66
2019-03-20T01:57:07.097Z,98686.49
2019-03-20T02:00:17.246Z,98678.03
2019-03-20T02:03:25.806Z,98686.08
2019-03-20T02:06:33.846Z,98691.39
2019-03-20T02:09:42.402Z,98687.52
2019-03-20T02:12:51.532Z,98690.76
2019-03-20T02:16:03.643Z,98690.00
2019-03-20T02:19:13.289Z,98693.36
2019-03-20T02:22:21.209Z,98699.14
2019-03-20T02:25:29.218Z,98694.92
2019-03-20T02:28:37.360Z,98697.64
2019-03-20T02:31:45.455Z,98703.92
2019-03-20T02:34:53.665Z,98701.92
2019-03-20T02:38:08.555Z,98703.92
2019-03-20T02:41:18.413Z,98707.88
2019-03-20T02:44:27.852Z,98699.19
2019-03-20T02:47:37.740Z,98694.17
2019-03-20T02:50:47.841Z,98707.27
2019-03-20T02:53:56.039Z,98703.43
2019-03-20T02:57:04.104Z,98703.44
2019-03-20T03:00:14.849Z,98701.45
2019-03-20T03:03:23.836Z,98708.18
2019-03-20T03:06:31.770Z,98710.59
2019-03-20T03:09:40.937Z,98715.03
2019-03-20T03:12:49.135Z,98722.23
2019-03-20T03:15:57.422Z,98719.70
2019-03-20T03:19:05.396Z,98711.61
2019-03-20T03:22:13.534Z,98727.98
2019-03-20T03:25:22.290Z,98732.38
2019-03-20T03:28:33.405Z,98732.60
2019-03-20T03:31:42.594Z,98730.80
2019-03-20T03:34:50.872Z,98739.00
2019-03-20T03:38:00.883Z,98729.42
2019-03-20T03:41:10.062Z,98734.45
2019-03-20T03:44:18.326Z,98740.47
2019-03-20T03:47:26.409Z,98740.34
2019-03-20T03:50:34.472Z,98744.58
2019-03-20T03:53:42.327Z,98749.12
2019-03-20T03:56:52.057Z,98745.83
2019-03-20T04:00:00.477Z,98745.13
2019-03-20T04:03:09.788Z,98741.78
2019-03-20T04:06:19.598Z,98737.83
2019-03-20T04:09:30.306Z,98740.53
2019-03-20T04:12:37.864Z,98736.04
2019-03-20T04:15:47.718Z,98734.13
2019-03-20T04:18:56.028Z,98737.83
2019-03-20T04:22:08.512Z,98743.74
2019-03-20T04:25:16.460Z,98742.66
2019-03-20T04:28:24.691Z,98744.88
2019-03-20T04:31:34.260Z,98750.20
2019-03-20T04:34:44.971Z,98747.92
2019-03-20T04:37:53.042Z,98749.97
2019-03-20T04:41:00.958Z,98745.31
2019-03-20T04:44:08.846Z,98754.56
2019-03-20T04:47:17.378Z,98756.58
2019-03-20T04:50:25.589Z,98758.23
2019-03-20T04:53:34.241Z,98763.12
2019-03-20T04:56:42.946Z,98767.16
2019-03-20T04:59:51.315Z,98771.09
2019-03-20T05:03:01.075Z,98774.49
2019-03-20T05:06:09.584Z,98775.97
2019-03-20T05:09:18.279Z,98778.48
2019-03-20T05:12:27.646Z,98780.92
2019-03-20T05:15:35.559Z,98776.14
2019-03-20T05:18:45.162Z,98784.39
2019-03-20T05:21:53.450Z,98781.87
2019-03-20T05:25:02.971Z,98791.79
2019-03-20T05:28:13.822Z,98799.52
2019-03-20T05:31:22.496Z,98801.60
2019-03-20T05:34:30.632Z,98799.73
2019-03-20T05:37:38.859Z,98812.47
2019-03-20T05:40:47.059Z,98818.91
2019-03-20T05:43:55.613Z,98813.54
2019-03-20T05:47:10.143Z,98812.64
2019-03-20T05:50:18.326Z,98812.59
2019-03-20T05:53:26.284Z,98819.77
2019-03-20T05:56:36.190Z,98822.52
2019-03-20T05:59:44.603Z,98827.06
2019-03-20T06:02:53.271Z,98827.16
2019-03-20T06:06:01.593Z,98829.24
2019-03-20T06:09:11.521Z,98829.36
2019-03-20T06:12:21.454Z,98829.88
2019-03-20T06:15:29.707Z,98834.43
2019-03-20T06:18:37.958Z,98832.55
2019-03-20T06:21:46.035Z,98845.95
2019-03-20T06:24:53.914Z,98841.97
2019-03-20T06:28:02.130Z,98848.41
2019-03-20T06:31:10.118Z,98851.56
2019-03-20T06:34:18.468Z,98859.38
2019-03-20T06:37:32.637Z,98862.38
2019-03-20T06:40:35.970Z,98858.23
2019-03-20T06:43:43.888Z,98872.38
2019-03-20T06:46:51.855Z,98868.32
2019-03-20T06:50:02.743Z,98870.29
2019-03-20T06:53:11.367Z,98864.23
2019-03-20T06:56:19.333Z,98875.03
2019-03-20T07:00:22.499Z,98872.41
2019-03-20T07:03:42.311Z,98883.05
2019-03-20T07:07:17.801Z,98877.48
2019-03-20T07:11:16.615Z,98882.78
2019-03-20T07:14:25.560Z,98881.46
2019-03-20T07:17:33.446Z,98885.62
2019-03-20T07:20:41.255Z,98887.51
2019-03-20T07:23:49.760Z,98893.01
2019-03-20T07:26:58.281Z,98896.65
2019-03-20T07:30:10.024Z,98896.77
2019-03-20T07:33:18.393Z,98899.77
2019-03-20T07:36:26.914Z,98904.95
2019-03-20T07:39:35.502Z,98909.94
2019-03-20T07:42:44.711Z,98912.20
2019-03-20T07:45:55.605Z,98919.55
2019-03-20T07:49:06.797Z,98920.45
2019-03-20T07:52:14.924Z,98920.55
2019-03-20T07:55:25.670Z,98919.33
2019-03-20T07:58:33.834Z,98915.93
2019-03-20T08:01:41.877Z,98913.58
2019-03-20T08:04:49.806Z,98913.60
2019-03-20T08:08:07.246Z,98915.16
2019-03-20T08:11:11.181Z,98913.96
2019-03-20T08:14:22.488Z,98910.13
2019-03-20T08:17:34.539Z,98916.78
2019-03-20T08:20:42.548Z,98922.27
2019-03-20T08:23:51.093Z,98917.38
2019-03-20T08:27:00.999Z,98918.80
2019-03-20T08:30:13.704Z,98918.11
2019-03-20T08:33:21.589Z,98920.73
2019-03-20T08:36:29.752Z,98921.61
2019-03-20T08:39:39.091Z,98924.45
2019-03-20T08:42:49.170Z,98929.15
2019-03-20T08:46:02.339Z,98932.89
2019-03-20T08:49:11.682Z,98943.09
2019-03-20T08:52:21.283Z,98938.84
2019-03-20T08:55:29.372Z,98936.82
2019-03-20T08:58:37.742Z,98935.56
2019-03-20T09:01:45.728Z,98941.16
2019-03-20T09:04:54.001Z,98942.00
2019-03-20T09:08:03.244Z,98943.92
2019-03-20T09:11:11.154Z,98945.56
2019-03-20T09:14:19.280Z,98943.73
2019-03-20T09:17:27.568Z,98943.48
2019-03-20T09:20:40.007Z,98943.05
2019-03-20T09:23:47.940Z,98955.42
2019-03-20T09:26:56.096Z,98958.03
2019-03-20T09:30:04.720Z,98957.19
2019-03-20T09:33:13.006Z,98960.67
2019-03-20T09:36:20.961Z,98953.52
2019-03-20T09:39:29.104Z,98956.91
2019-03-20T09:42:36.983Z,98954.80
2019-03-20T09:45:45.017Z,98960.33
2019-03-20T09:48:54.042Z,98963.23
2019-03-20T09:52:02.152Z,98972.22
2019-03-20T09:55:10.544Z,98971.39
2019-03-20T09:58:18.579Z,98970.94
2019-03-20T10:01:26.923Z,98976.91
2019-03-20T10:04:34.983Z,98975.22
2019-03-20T10:07:44.364Z,98970.92
2019-03-20T10:10:53.233Z,98981.64
2019-03-20T10:14:01.060Z,98976.08
2019-03-20T10:17:09.312Z,98977.38
2019-03-20T10:20:19.670Z,98977.81
2019-03-20T10:23:29.380Z,98970.14
2019-03-20T10:26:37.378Z,98973.53
2019-03-20T10:29:45.443Z,98978.65
2019-03-20T10:32:54.257Z,98965.90
2019-03-20T10:36:02.493Z,98976.11
2019-03-20T10:39:11.952Z,98976.98
2019-03-20T10:42:19.985Z,98968.02
2019-03-20T10:45:28.679Z,98967.99
2019-03-20T10:48:39.328Z,98966.77
2019-03-20T10:51:47.613Z,98968.78
2019-03-20T10:54:55.789Z,98965.17
2019-03-20T10:58:03.557Z,98974.30
2019-03-20T11:01:11.634Z,98962.32
2019-03-20T11:04:19.961Z,98961.94
2019-03-20T11:07:28.213Z,98961.52
2019-03-20T11:10:36.635Z,98962.63
2019-03-20T11:13:47.185Z,98959.63
2019-03-20T11:16:56.844Z,98948.73
2019-03-20T11:20:45.224Z,98951.69
2019-03-20T11:23:54.860Z,98960.98
2019-03-20T11:27:06.506Z,98956.04
2019-03-20T11:30:25.729Z,98955.48
2019-03-20T11:33:34.064Z,98951.73
2019-03-20T11:36:42.254Z,98955.86
2019-03-20T11:39:52.630Z,98945.55
2019-03-20T11:43:03.719Z,98945.53
2019-03-20T11:46:12.171Z,98943.24
2019-03-20T11:49:21.020Z,98937.45
2019-03-20T11:52:29.561Z,98938.81
2019-03-20T11:55:38.211Z,98933.23
2019-03-20T11:58:46.670Z,98932.66
2019-03-20T12:01:54.671Z,98926.50
2019-03-20T12:05:03.255Z,98921.09
2019-03-20T12:08:11.383Z,98915.49
2019-03-20T12:11:20.280Z,98910.16
2019-03-20T12:14:30.635Z,98905.96
2019-03-20T12:17:39.010Z,98898.88
2019-03-20T12:20:47.620Z,98901.19
2019-03-20T12:23:56.255Z,98894.42
2019-03-20T12:27:14.760Z,98895.02
2019-03-20T12:30:19.736Z,98893.22
2019-03-20T12:33:27.889Z,98897.16
2019-03-20T12:36:36.121Z,98889.95
2019-03-20T12:39:52.799Z,98893.00
2019-03-20T12:42:54.012Z,98901.17
2019-03-20T12:46:03.792Z,98894.99
2019-03-20T12:49:12.285Z,98892.25
2019-03-20T12:52:20.634Z,98880.81
2019-03-20T12:55:30.953Z,98881.44
2019-03-20T12:58:38.499Z,98874.30
2019-03-20T13:01:46.747Z,98867.80
2019-03-20T13:04:54.811Z,98863.72
2019-03-20T13:08:06.037Z,98866.45
2019-03-20T13:11:12.897Z,98850.37
2019-03-20T13:14:21.595Z,98854.11
2019-03-20T13:17:29.374Z,98854.30
2019-03-20T13:20:37.635Z,98848.95
2019-03-20T13:23:45.741Z,98854.57
2019-03-20T13:26:54.482Z,98846.29
2019-03-20T13:30:02.885Z,98844.33
2019-03-20T13:33:11.011Z,98845.02
2019-03-20T13:36:18.947Z,98844.52
2019-03-20T13:39:27.411Z,98839.72
2019-03-20T13:42:35.498Z,98848.25
2019-03-20T13:45:43.665Z,98853.81
2019-03-20T13:48:51.786Z,98852.25
2019-03-20T13:52:01.044Z,98856.23
2019-03-20T13:55:09.479Z,98856.28
2019-03-20T13:58:17.775Z,98865.23
2019-03-20T14:01:28.009Z,98861.28
2019-03-20T14:04:36.322Z,98854.61
2019-03-20T14:07:45.653Z,98865.26
2019-03-20T14:10:54.715Z,98857.03
2019-03-20T14:14:03.137Z,98869.94
2019-03-20T14:17:11.590Z,98863.41
2019-03-20T14:20:23.556Z,98857.75
2019-03-20T14:23:31.627Z,98862.36
2019-03-20T14:26:39.733Z,98855.05
2019-03-20T14:29:49.202Z,98858.91
2019-03-20T14:32:57.594Z,98860.39
2019-03-20T14:36:05.417Z,98856.30
2019-03-20T14:39:13.353Z,98856.83
2019-03-20T14:42:21.645Z,98854.55
2019-03-20T14:45:29.915Z,98857.91
2019-03-20T14:48:38.141Z,98858.66
2019-03-20T14:51:46.413Z,98854.55
2019-03-20T14:54:56.367Z,98859.16
2019-03-20T14:58:04.446Z,98852.43
2019-03-20T15:01:12.611Z,98845.20
2019-03-20T15:04:20.707Z,98845.10
2019-03-20T15:07:28.796Z,98841.41
2019-03-20T15:10:45.715Z,98843.09
2019-03-20T15:13:46.974Z,98843.64
2019-03-20T15:16:55.220Z,98840.52
2019-03-20T15:20:03.570Z,98838.62
2019-03-20T15:23:11.760Z,98837.20
2019-03-20T15:26:20.566Z,98838.33
2019-03-20T15:29:29.241Z,98833.03
2019-03-20T15:32:37.439Z,98832.61
2019-03-20T15:35:46.148Z,98833.36
2019-03-20T15:38:54.111Z,98834.52
2019-03-20T15:42:03.195Z,98834.72
2019-03-20T15:45:16.392Z,98835.65
2019-03-20T15:48:24.785Z,98839.95
2019-03-20T15:51:34.225Z,98847.98
2019-03-20T15:54:43.173Z,98842.30
2019-03-20T15:57:51.560Z,98836.02
2019-03-20T16:00:59.819Z,98840.50
2019-03-20T16:04:09.495Z,98848.12
2019-03-20T16:07:17.919Z,98842.60
2019-03-20T16:10:25.963Z,98843.31
2019-03-20T16:13:34.378Z,98856.41
2019-03-20T16:16:42.527Z,98845.05
2019-03-20T16:19:52.184Z,98852.91
2019-03-20T16:22:59.656Z,98848.92
2019-03-20T16:26:06.864Z,98838.84
2019-03-20T16:29:14.104Z,98837.44
2019-03-20T16:32:21.272Z,98839.27
2019-03-20T16:35:28.859Z,98842.83
2019-03-20T16:38:35.822Z,98844.34
2019-03-20T16:41:43.002Z,98846.14
2019-03-20T16:44:50.012Z,98850.36
2019-03-20T16:47:57.471Z,98836.80
2019-03-20T16:51:07.355Z,98837.48
2019-03-20T16:54:14.369Z,98840.45
2019-03-20T16:57:21.921Z,98846.70
2019-03-20T17:00:31.239Z,98847.42
2019-03-20T17:03:38.488Z,98843.08
2019-03-20T17:06:48.218Z,98854.31
2019-03-20T17:09:55.121Z,98863.27
2019-03-20T17:13:02.849Z,98856.84
2019-03-20T17:16:09.685Z,98869.30
2019-03-20T17:19:16.614Z,98874.43
2019-03-20T17:22:23.433Z,98881.23
2019-03-20T17:25:30.835Z,98880.37
2019-03-20T17:28:37.693Z,98887.53
2019-03-20T17:31:44.571Z,98877.31
2019-03-20T17:34:53.533Z,98871.73
2019-03-20T17:38:04.740Z,98873.27
2019-03-20T17:41:11.632Z,98872.93
2019-03-20T17:44:18.552Z,98876.81
2019-03-20T17:47:25.423Z,98876.25
2019-03-20T17:50:32.506Z,98869.84
2019-03-20T17:53:39.518Z,98871.30
2019-03-20T17:56:46.438Z,98871.29
2019-03-20T17:59:55.294Z,98874.86
2019-03-20T18:03:05.087Z,98875.46
2019-03-20T18:06:12.164Z,98877.59
2019-03-20T18:09:19.096Z,98874.19
2019-03-20T18:12:25.946Z,98882.59
2019-03-20T18:15:32.844Z,98883.56
2019-03-20T18:18:39.687Z,98887.00
2019-03-20T18:21:46.604Z,98890.15
2019-03-20T18:24:53.691Z,98897.47
2019-03-20T18:28:00.595Z,98904.85
2019-03-20T18:31:07.511Z,98907.30
2019-03-20T18:34:14.851Z,98912.00
2019-03-20T18:37:22.016Z,98916.07
2019-03-20T18:40:29.058Z,98920.14
2019-03-20T18:43:35.896Z,98921.72
2019-03-20T18:46:42.860Z,98924.41
2019-03-20T18:49:49.894Z,98924.37
2019-03-20T18:52:56.791Z,98927.59
2019-03-20T18:56:03.759Z,98929.17
2019-03-20T18:59:10.735Z,98924.69
2019-03-20T19:02:18.579Z,98931.23
2019-03-20T19:05:33.457Z,98935.08
2019-03-20T19:08:40.287Z,98949.02
2019-03-20T19:11:47.463Z,98960.45
2019-03-20T19:14:54.375Z,98957.16
2019-03-20T19:18:01.257Z,98958.16
2019-03-20T19:21:09.184Z,98962.30
2019-03-20T19:24:16.117Z,98966.11
2019-03-20T19:27:23.010Z,98960.83
2019-03-20T19:30:30.044Z,98962.81
2019-03-20T19:33:36.893Z,98955.47
2019-03-20T19:36:43.791Z,98962.87
2019-03-20T19:39:50.759Z,98965.17
2019-03-20T19:43:01.862Z,98966.53
2019-03-20T19:46:08.697Z,98967.89
2019-03-20T19:49:15.547Z,98966.03
2019-03-20T19:52:22.570Z,98969.08
2019-03-20T19:55:29.616Z,98973.72
2019-03-20T19:58:36.598Z,98974.18
2019-03-20T20:01:43.534Z,98975.05
2019-03-20T20:04:53.144Z,98977.89
2019-03-20T20:08:00.165Z,98970.66
2019-03-20T20:11:07.153Z,98978.34
2019-03-20T20:14:14.109Z,98973.21
2019-03-20T20:17:20.997Z,98977.45
2019-03-20T20:20:28.063Z,98979.23
2019-03-20T20:23:34.891Z,98978.08
2019-03-20T20:26:41.827Z,98973.23
2019-03-20T20:29:49.870Z,98972.25
2019-03-20T20:32:56.733Z,98982.49
2019-03-20T20:36:03.659Z,98979.02
2019-03-20T20:39:13.480Z,98975.73
2019-03-20T20:42:20.323Z,98978.52
2019-03-20T20:45:28.921Z,98976.55
2019-03-20T20:48:35.790Z,98975.71
2019-03-20T20:51:44.827Z,98978.52
2019-03-20T20:54:53.514Z,98981.30
2019-03-20T20:58:02.278Z,98977.41
2019-03-20T21:01:10.352Z,98982.27
2019-03-20T21:04:18.740Z,98988.34
2019-03-20T21:07:32.334Z,98995.63
2019-03-20T21:10:40.820Z,98997.98
2019-03-20T21:13:49.392Z,98993.84
2019-03-20T21:16:58.609Z,99000.87
2019-03-20T21:20:07.810Z,99003.33
2019-03-20T21:24:10.380Z,98997.39
2019-03-20T21:28:21.732Z,98989.70
2019-03-20T21:31:46.588Z,98991.13
2019-03-20T21:36:03.425Z,98995.13
2019-03-20T21:39:14.600Z,98996.61
2019-03-20T21:43:19.921Z,98987.98
2019-03-20T21:47:18.244Z,98988.65
2019-03-20T21:51:18.198Z,98989.09
2019-03-20T21:55:29.029Z,98997.88
2019-03-20T21:58:56.697Z,98999.01
2019-03-20T22:02:45.652Z,98992.41
2019-03-20T22:07:12.772Z,98992.34
2019-03-20T22:11:06.235Z,99001.48
2019-03-20T22:14:15.494Z,98998.86
2019-03-20T22:19:02.530Z,98999.73
2019-03-20T22:22:49.323Z,98995.20
2019-03-20T22:27:04.854Z,99003.17
2019-03-20T22:30:14.095Z,99008.42
2019-03-20T22:34:16.953Z,99004.02
2019-03-20T22:37:26.404Z,99009.20
2019-03-20T22:41:50.859Z,99011.67
2019-03-20T22:45:35.007Z,99008.70
2019-03-20T22:49:19.141Z,99003.89
2019-03-20T22:53:34.981Z,99010.02
2019-03-20T22:57:15.893Z,99002.84
2019-03-20T23:00:28.471Z,98997.97
2019-03-20T23:03:44.450Z,99009.33
2019-03-20T23:06:53.704Z,99021.22
2019-03-20T23:10:02.915Z,99018.50
2019-03-20T23:13:18.770Z,99022.85
2019-03-20T23:16:24.688Z,99024.64
2019-03-20T23:19:36.737Z,99033.05
2019-03-20T23:22:45.983Z,99040.91
2019-03-20T23:25:54.997Z,99039.94
2019-03-20T23:29:05.813Z,99038.05
2019-03-20T23:32:14.911Z,99039.55
2019-03-20T23:35:24.628Z,99038.28
2019-03-20T23:38:33.667Z,99044.95
2019-03-20T23:41:43.990Z,99038.04
2019-03-20T23:44:53.461Z,99041.07
2019-03-20T23:48:17.188Z,99034.05
2019-03-20T23:51:27.635Z,99035.08
2019-03-20T23:54:52.362Z,99040.09
2019-03-20T23:58:01.208Z,99044.55
